Time;durP1;ratioP1;P1;durP2;ratioP2;P2;SDS_P1;SDS_P2;PMS_P1;PMS_P2;Temp;Humidity;BMP_temperature;BMP_pressure;BME280_temperature;BME280_humidity;BME280_pressure;Samples;Min_cycle;Max_cycle;Signal;HPM_P1;HPM_P2
2022/07/18 00:01:35;;;;;;;;;;;20.90;67.10;;;;;;4976396;28;1238;-67
2022/07/18 00:04:00;;;;;;;;;;;21.00;67.20;;;;;;4976351;28;1329;-65
2022/07/18 00:06:26;;;;;;;;;;;20.90;67.20;;;;;;5007707;28;1188;-65
2022/07/18 00:08:51;;;;;;;;;;;21.00;67.20;;;;;;4976568;28;1323;-65
2022/07/18 00:11:17;;;;;;;;;;;20.90;67.20;;;;;;4983975;28;1308;-65
2022/07/18 00:13:42;;;;;;;;;;;21.00;67.20;;;;;;5004838;28;1196;-65
2022/07/18 00:16:07;;;;;;;;;;;21.00;67.30;;;;;;4990268;28;1294;-65
2022/07/18 00:18:33;;;;;;;;;;;20.90;67.20;;;;;;4995169;28;1902;-65
2022/07/18 00:20:58;;;;;;;;;;;20.90;67.20;;;;;;4992894;28;1354;-65
2022/07/18 00:23:24;;;;;;;;;;;20.90;67.20;;;;;;4995804;28;1231;-65
2022/07/18 00:25:49;;;;;;;;;;;20.90;67.20;;;;;;4995440;28;1327;-65
2022/07/18 00:28:15;;;;;;;;;;;20.90;67.20;;;;;;4994352;28;1246;-64
2022/07/18 00:30:40;;;;;;;;;;;20.90;67.20;;;;;;4995572;28;1139;-65
2022/07/18 00:33:06;;;;;;;;;;;20.90;67.20;;;;;;5017056;28;1374;-65
2022/07/18 00:35:31;;;;;;;;;;;20.90;67.20;;;;;;4975559;28;1283;-65
2022/07/18 00:37:56;;;;;;;;;;;20.90;67.20;;;;;;4975774;28;1899;-65
2022/07/18 00:40:22;;;;;;;;;;;21.00;67.40;;;;;;4975818;28;1319;-65
2022/07/18 00:42:47;;;;;;;;;;;20.90;67.40;;;;;;4975598;28;1288;-65
2022/07/18 00:45:13;;;;;;;;;;;20.90;67.40;;;;;;4975527;28;1389;-65
2022/07/18 00:47:38;;;;;;;;;;;20.90;67.40;;;;;;4975455;28;1271;-65
2022/07/18 00:50:05;;;;;;;;;;;21.00;67.50;;;;;;4975723;28;1380;-65
2022/07/18 00:52:30;;;;;;;;;;;20.90;67.40;;;;;;4975414;28;1272;-65
2022/07/18 00:54:56;;;;;;;;;;;20.90;67.40;;;;;;4975431;28;1354;-65
2022/07/18 00:57:21;;;;;;;;;;;20.90;67.40;;;;;;5006785;28;1895;-65
2022/07/18 01:02:31;;;;;;;;;;;20.90;67.50;;;;;;4994895;28;1353;-64
2022/07/18 01:04:56;;;;;;;;;;;20.90;67.50;;;;;;4994661;28;1382;-65
2022/07/18 01:07:22;;;;;;;;;;;20.90;67.50;;;;;;4994808;28;1175;-64
2022/07/18 01:09:47;;;;;;;;;;;20.90;67.50;;;;;;4994762;28;1072;-65
2022/07/18 01:12:13;;;;;;;;;;;20.90;67.50;;;;;;5037547;28;1368;-64
2022/07/18 01:14:38;;;;;;;;;;;20.90;67.50;;;;;;4995262;28;1288;-66
2022/07/18 01:17:11;;;;;;;;;;;20.90;67.50;;;;;;4989076;28;1385;-66
2022/07/18 01:19:36;;;;;;;;;;;21.00;67.60;;;;;;4991607;28;1102;-67
2022/07/18 01:22:01;;;;;;;;;;;20.90;67.50;;;;;;4994611;28;1228;-67
2022/07/18 01:24:27;;;;;;;;;;;20.90;67.50;;;;;;4994074;28;1329;-67
2022/07/18 01:26:53;;;;;;;;;;;20.90;67.50;;;;;;4994439;28;1344;-67
2022/07/18 01:29:19;;;;;;;;;;;20.90;67.50;;;;;;4994310;28;1354;-67
2022/07/18 01:31:44;;;;;;;;;;;20.90;67.60;;;;;;4994436;28;1409;-67
2022/07/18 01:34:10;;;;;;;;;;;20.90;67.60;;;;;;4993971;28;1275;-67
2022/07/18 01:36:35;;;;;;;;;;;20.90;67.60;;;;;;4994099;28;1060;-67
2022/07/18 01:39:00;;;;;;;;;;;20.90;67.60;;;;;;4994175;28;1914;-67
2022/07/18 01:41:26;;;;;;;;;;;20.90;67.60;;;;;;4994582;28;1301;-67
2022/07/18 01:43:51;;;;;;;;;;;20.90;67.60;;;;;;5006829;28;1228;-67
2022/07/18 01:46:17;;;;;;;;;;;20.90;67.70;;;;;;4974733;28;1080;-67
2022/07/18 01:48:42;;;;;;;;;;;20.90;67.60;;;;;;4992613;28;1140;-67
2022/07/18 01:51:10;;;;;;;;;;;20.90;67.60;;;;;;4994025;28;1326;-67
2022/07/18 01:53:39;;;;;;;;;;;20.90;67.60;;;;;;4993822;28;1335;-67
2022/07/18 01:56:04;;;;;;;;;;;20.90;67.70;;;;;;4993987;28;1414;-67
2022/07/18 01:58:30;;;;;;;;;;;20.90;67.70;;;;;;4993591;28;1891;-67
2022/07/18 02:00:55;;;;;;;;;;;20.90;67.70;;;;;;4993935;28;1319;-67
2022/07/18 02:03:21;;;;;;;;;;;20.90;67.70;;;;;;4993984;28;1266;-67
2022/07/18 02:05:46;;;;;;;;;;;20.90;67.70;;;;;;4993547;28;1036;-67
2022/07/18 02:08:11;;;;;;;;;;;20.90;67.70;;;;;;4993233;28;1136;-67
2022/07/18 02:10:37;;;;;;;;;;;20.90;67.70;;;;;;4993776;28;1092;-67
2022/07/18 02:13:02;;;;;;;;;;;20.90;67.70;;;;;;5005196;28;1297;-67
2022/07/18 02:15:28;;;;;;;;;;;20.90;67.70;;;;;;4990373;28;1084;-67
2022/07/18 02:17:53;;;;;;;;;;;20.90;67.70;;;;;;4991889;28;1970;-67
2022/07/18 02:20:19;;;;;;;;;;;20.90;67.80;;;;;;4990532;28;1152;-66
2022/07/18 02:22:44;;;;;;;;;;;20.90;67.80;;;;;;4993417;28;1402;-67
2022/07/18 02:25:10;;;;;;;;;;;20.90;67.80;;;;;;4992259;28;1304;-67
2022/07/18 02:27:35;;;;;;;;;;;20.90;67.80;;;;;;5007504;28;1278;-68
2022/07/18 02:30:01;;;;;;;;;;;20.90;67.80;;;;;;5005563;28;1319;-66
2022/07/18 02:32:26;;;;;;;;;;;20.90;67.80;;;;;;4973850;28;1298;-67
2022/07/18 02:34:52;;;;;;;;;;;20.90;67.80;;;;;;5005245;28;1059;-67
2022/07/18 02:37:17;;;;;;;;;;;20.90;67.80;;;;;;4973942;28;1969;-67
2022/07/18 02:39:43;;;;;;;;;;;20.90;67.80;;;;;;4974167;28;1302;-67
2022/07/18 02:42:08;;;;;;;;;;;20.90;67.80;;;;;;4973700;28;1277;-67
2022/07/18 02:44:33;;;;;;;;;;;20.90;67.80;;;;;;4973784;28;1370;-67
2022/07/18 02:46:59;;;;;;;;;;;20.90;67.80;;;;;;4974141;28;1374;-67
2022/07/18 02:49:28;;;;;;;;;;;20.90;67.90;;;;;;5005669;28;1059;-67
2022/07/18 02:51:57;;;;;;;;;;;20.90;67.80;;;;;;5004660;28;1095;-67
2022/07/18 02:54:22;;;;;;;;;;;20.90;67.90;;;;;;4974067;28;1301;-67
2022/07/18 02:56:48;;;;;;;;;;;20.90;67.90;;;;;;5004990;28;1438;-67
2022/07/18 02:59:13;;;;;;;;;;;20.90;67.90;;;;;;4973974;28;1956;-67
2022/07/18 03:01:38;;;;;;;;;;;20.90;67.90;;;;;;4972563;28;1375;-67
2022/07/18 03:04:04;;;;;;;;;;;20.90;67.90;;;;;;4973199;28;1349;-68
2022/07/18 03:06:29;;;;;;;;;;;20.90;67.90;;;;;;4973712;28;1403;-67
2022/07/18 03:08:55;;;;;;;;;;;20.90;68.00;;;;;;4973708;28;1341;-66
2022/07/18 03:11:20;;;;;;;;;;;20.90;68.00;;;;;;4981912;28;1251;-67
2022/07/18 03:13:46;;;;;;;;;;;20.90;68.70;;;;;;5001691;28;1319;-67
2022/07/18 03:16:11;;;;;;;;;;;20.90;68.00;;;;;;4987617;28;1421;-67
2022/07/18 03:18:36;;;;;;;;;;;20.90;68.00;;;;;;4992383;28;1968;-67
2022/07/18 03:21:02;;;;;;;;;;;20.90;68.00;;;;;;4993630;28;1156;-67
2022/07/18 03:23:27;;;;;;;;;;;20.90;68.00;;;;;;4996693;28;1312;-67
2022/07/18 03:25:53;;;;;;;;;;;20.90;68.00;;;;;;4996328;28;1082;-68
2022/07/18 03:28:18;;;;;;;;;;;20.90;68.00;;;;;;4996746;28;1330;-68
2022/07/18 03:30:44;;;;;;;;;;;20.90;68.00;;;;;;4996840;28;1276;-67
2022/07/18 03:33:09;;;;;;;;;;;20.90;68.00;;;;;;4996646;28;1281;-67
2022/07/18 03:35:35;;;;;;;;;;;20.90;68.00;;;;;;4996208;28;1276;-67
2022/07/18 03:38:00;;;;;;;;;;;20.90;68.00;;;;;;5018492;28;1939;-67
2022/07/18 03:40:26;;;;;;;;;;;20.90;68.00;;;;;;4976977;28;1282;-67
2022/07/18 03:42:51;;;;;;;;;;;20.90;68.00;;;;;;4976943;28;1338;-67
2022/07/18 03:45:17;;;;;;;;;;;20.90;68.10;;;;;;4976734;28;1402;-67
2022/07/18 03:47:42;;;;;;;;;;;20.90;68.00;;;;;;4976992;28;1287;-66
2022/07/18 03:50:08;;;;;;;;;;;20.90;68.10;;;;;;4976709;28;1307;-67
2022/07/18 03:52:33;;;;;;;;;;;20.90;68.10;;;;;;4976608;28;1342;-67
2022/07/18 03:55:01;;;;;;;;;;;20.90;68.10;;;;;;5007638;28;1338;-67
2022/07/18 03:57:27;;;;;;;;;;;20.90;68.10;;;;;;4975419;28;1903;-67
2022/07/18 03:59:52;;;;;;;;;;;20.90;68.10;;;;;;4976703;28;1324;-68
2022/07/18 04:02:18;;;;;;;;;;;20.90;68.10;;;;;;4976520;28;1357;-67
2022/07/18 04:04:43;;;;;;;;;;;20.90;68.10;;;;;;4976380;28;1287;-67
2022/07/18 04:07:08;;;;;;;;;;;20.90;68.10;;;;;;4975257;28;1301;-66
2022/07/18 04:09:34;;;;;;;;;;;20.90;68.10;;;;;;4976491;28;1328;-67
2022/07/18 04:11:59;;;;;;;;;;;20.90;68.10;;;;;;4995546;28;1156;-67
2022/07/18 04:14:25;;;;;;;;;;;20.90;68.10;;;;;;4999132;28;1283;-66
2022/07/18 04:16:50;;;;;;;;;;;20.90;68.10;;;;;;4990430;28;1317;-67
2022/07/18 04:19:17;;;;;;;;;;;20.90;68.10;;;;;;4992700;28;1974;-67
2022/07/18 04:21:42;;;;;;;;;;;20.90;68.20;;;;;;4995762;28;1287;-67
2022/07/18 04:24:08;;;;;;;;;;;20.90;68.10;;;;;;4995234;28;1292;-67
2022/07/18 04:26:33;;;;;;;;;;;20.90;68.20;;;;;;4995502;28;1065;-66
2022/07/18 04:28:59;;;;;;;;;;;20.90;68.20;;;;;;4995437;28;1276;-67
2022/07/18 04:31:24;;;;;;;;;;;20.90;68.20;;;;;;4995438;28;1080;-68
2022/07/18 04:33:50;;;;;;;;;;;20.90;68.20;;;;;;5011039;28;1331;-67
2022/07/18 04:36:15;;;;;;;;;;;20.90;68.20;;;;;;4976295;28;1403;-67
2022/07/18 04:38:41;;;;;;;;;;;20.90;68.20;;;;;;4976055;28;1972;-67
2022/07/18 04:41:06;;;;;;;;;;;20.90;68.20;;;;;;4975998;28;1045;-66
2022/07/18 04:43:32;;;;;;;;;;;20.90;68.20;;;;;;4975731;28;1414;-66
2022/07/18 04:45:57;;;;;;;;;;;20.90;68.20;;;;;;4975827;28;1049;-67
2022/07/18 04:48:23;;;;;;;;;;;20.90;68.20;;;;;;5006979;28;1116;-67
2022/07/18 04:50:48;;;;;;;;;;;20.90;68.30;;;;;;4975774;28;1289;-67
2022/07/18 04:53:13;;;;;;;;;;;20.90;68.30;;;;;;4975673;28;1409;-68
2022/07/18 04:55:39;;;;;;;;;;;20.90;68.30;;;;;;4975606;28;1089;-67
2022/07/18 04:58:04;;;;;;;;;;;20.90;68.30;;;;;;4975552;28;1902;-66
2022/07/18 05:00:30;;;;;;;;;;;20.90;68.30;;;;;;4975566;28;1293;-66
2022/07/18 05:02:56;;;;;;;;;;;20.90;68.30;;;;;;4975606;28;1358;-66
2022/07/18 05:05:22;;;;;;;;;;;20.90;67.90;;;;;;4975164;28;1128;-66
2022/07/18 05:07:47;;;;;;;;;;;20.90;68.10;;;;;;4975217;28;1080;-65
2022/07/18 05:10:13;;;;;;;;;;;20.90;67.40;;;;;;4975125;28;1069;-64
2022/07/18 05:12:40;;;;;;;;;;;20.90;67.10;;;;;;5002897;28;1296;-65
2022/07/18 05:15:06;;;;;;;;;;;20.90;66.70;;;;;;4993917;28;1242;-65
2022/07/18 05:17:31;;;;;;;;;;;20.90;66.60;;;;;;4989896;28;1910;-65
2022/07/18 05:19:57;;;;;;;;;;;20.90;66.30;;;;;;4991736;28;1096;-67
2022/07/18 05:22:22;;;;;;;;;;;20.90;66.10;;;;;;4994237;28;1377;-67
2022/07/18 05:24:48;;;;;;;;;;;20.90;65.90;;;;;;5017044;28;1115;-66
2022/07/18 05:27:13;;;;;;;;;;;20.90;65.70;;;;;;4974963;28;1112;-67
2022/07/18 05:29:38;;;;;;;;;;;20.90;65.50;;;;;;4975049;28;1327;-66
2022/07/18 05:32:04;;;;;;;;;;;20.90;65.40;;;;;;4974740;28;1167;-66
2022/07/18 05:34:30;;;;;;;;;;;20.90;65.30;;;;;;4974582;28;1465;-66
2022/07/18 05:36:55;;;;;;;;;;;20.90;65.30;;;;;;4974767;28;1315;-65
2022/07/18 05:39:20;;;;;;;;;;;20.90;65.30;;;;;;4974539;28;1907;-64
2022/07/18 05:41:46;;;;;;;;;;;20.90;65.20;;;;;;4974158;28;1335;-64
2022/07/18 05:44:11;;;;;;;;;;;20.90;65.20;;;;;;4973816;28;1272;-63
2022/07/18 05:46:37;;;;;;;;;;;20.90;65.20;;;;;;4974225;28;1583;-65
2022/07/18 05:49:02;;;;;;;;;;;20.90;65.20;;;;;;4973870;28;1389;-64
2022/07/18 05:51:27;;;;;;;;;;;20.80;64.80;;;;;;4973934;28;1057;-64
2022/07/18 05:53:53;;;;;;;;;;;20.90;64.80;;;;;;4983291;28;2234;-65
2022/07/18 05:56:18;;;;;;;;;;;20.80;64.80;;;;;;4992932;28;1121;-63
2022/07/18 05:58:44;;;;;;;;;;;20.90;64.90;;;;;;4985071;28;1907;-64
2022/07/18 06:01:09;;;;;;;;;;;20.90;64.70;;;;;;4993046;28;1253;-65
2022/07/18 06:03:35;;;;;;;;;;;20.90;64.70;;;;;;4993093;28;1274;-65
2022/07/18 06:06:00;;;;;;;;;;;20.90;64.70;;;;;;4993147;28;1305;-65
2022/07/18 06:08:26;;;;;;;;;;;20.90;64.60;;;;;;4993207;28;1305;-65
2022/07/18 06:10:51;;;;;;;;;;;20.80;64.50;;;;;;4993429;28;1327;-65
2022/07/18 06:13:16;;;;;;;;;;;20.90;64.20;;;;;;5005613;28;1297;-65
2022/07/18 06:15:42;;;;;;;;;;;20.90;64.30;;;;;;4987270;28;1287;-65
2022/07/18 06:18:07;;;;;;;;;;;20.80;64.20;;;;;;4992809;28;1968;-66
2022/07/18 06:20:33;;;;;;;;;;;20.80;64.00;;;;;;4989927;28;1131;-65
2022/07/18 06:22:58;;;;;;;;;;;20.80;64.00;;;;;;4992485;28;1277;-65
2022/07/18 06:25:24;;;;;;;;;;;20.90;64.30;;;;;;4992501;28;1349;-66
2022/07/18 06:27:49;;;;;;;;;;;20.80;64.40;;;;;;4993035;28;1268;-64
2022/07/18 06:30:14;;;;;;;;;;;20.90;64.60;;;;;;4993181;28;1266;-65
2022/07/18 06:32:40;;;;;;;;;;;20.80;64.60;;;;;;4993060;28;1385;-66
2022/07/18 06:35:06;;;;;;;;;;;20.90;64.60;;;;;;5011742;28;1345;-65
2022/07/18 06:37:31;;;;;;;;;;;20.90;64.70;;;;;;4973409;28;1899;-65
2022/07/18 06:39:57;;;;;;;;;;;20.90;64.70;;;;;;4973599;28;1310;-65
2022/07/18 06:42:22;;;;;;;;;;;20.90;64.70;;;;;;4973090;28;1343;-66
2022/07/18 06:44:48;;;;;;;;;;;20.80;64.50;;;;;;4973753;28;1295;-65
2022/07/18 06:47:13;;;;;;;;;;;20.90;64.50;;;;;;4973794;28;1152;-66
2022/07/18 06:49:38;;;;;;;;;;;20.90;64.40;;;;;;4974050;28;1424;-66
2022/07/18 06:52:04;;;;;;;;;;;20.90;64.40;;;;;;4973611;28;1264;-66
2022/07/18 06:54:30;;;;;;;;;;;20.90;64.30;;;;;;4976398;28;1319;-65
2022/07/18 06:56:55;;;;;;;;;;;20.90;64.30;;;;;;4977789;28;1320;-65
2022/07/18 06:59:21;;;;;;;;;;;20.90;64.10;;;;;;4977526;28;1894;-65
2022/07/18 07:01:46;;;;;;;;;;;20.90;63.90;;;;;;4990027;28;1494;-65
2022/07/18 07:04:11;;;;;;;;;;;20.90;64.10;;;;;;4995366;28;1628;-65
2022/07/18 07:06:38;;;;;;;;;;;20.90;64.00;;;;;;4991394;28;1842;-67
2022/07/18 07:09:04;;;;;;;;;;;20.90;63.90;;;;;;4994482;28;1923;-67
2022/07/18 07:11:29;;;;;;;;;;;20.90;64.50;;;;;;4994436;28;1404;-67
2022/07/18 07:13:55;;;;;;;;;;;21.00;65.00;;;;;;4995215;28;1592;-66
2022/07/18 07:16:20;;;;;;;;;;;21.00;65.20;;;;;;4995731;28;1366;-67
2022/07/18 07:18:45;;;;;;;;;;;21.00;65.10;;;;;;4995290;28;1907;-66
2022/07/18 07:21:11;;;;;;;;;;;21.10;65.20;;;;;;4995401;28;1408;-67
2022/07/18 07:23:36;;;;;;;;;;;21.10;65.70;;;;;;4995592;28;1414;-67
2022/07/18 07:26:02;;;;;;;;;;;21.10;65.90;;;;;;5016677;23;2210;-71
2022/07/18 07:28:27;;;;;;;;;;;21.20;66.70;;;;;;5014914;28;1254;-71
2022/07/18 07:30:53;;;;;;;;;;;21.20;66.20;;;;;;5014844;28;1276;-72
2022/07/18 07:33:18;;;;;;;;;;;21.20;66.30;;;;;;5014941;28;1098;-71
2022/07/18 07:35:44;;;;;;;;;;;21.30;66.50;;;;;;4998781;28;1338;-72
2022/07/18 07:38:10;;;;;;;;;;;21.30;66.50;;;;;;4990081;28;1918;-72
2022/07/18 07:40:35;;;;;;;;;;;21.30;66.50;;;;;;5001512;28;1602;-72
2022/07/18 07:43:19;;;;;;;;;;;21.30;66.60;;;;;;4991129;28;1210;-72
2022/07/18 07:45:48;;;;;;;;;;;21.30;66.70;;;;;;4984320;28;1815;-72
2022/07/18 07:48:14;;;;;;;;;;;21.30;66.70;;;;;;4996043;28;1319;-72
2022/07/18 07:50:40;;;;;;;;;;;21.30;66.70;;;;;;4995598;28;1376;-72
2022/07/18 07:53:05;;;;;;;;;;;21.30;66.70;;;;;;4995567;28;1221;-72
2022/07/18 07:55:31;;;;;;;;;;;21.30;66.70;;;;;;4995251;28;1381;-72
2022/07/18 07:57:56;;;;;;;;;;;21.30;66.80;;;;;;4995596;28;1898;-72
2022/07/18 08:00:22;;;;;;;;;;;21.30;66.90;;;;;;4978502;28;1677;-72
2022/07/18 08:02:54;;;;;;;;;;;21.30;67.00;;;;;;4978098;28;1389;-72
2022/07/18 08:05:20;;;;;;;;;;;21.30;67.10;;;;;;4976898;28;1339;-72
2022/07/18 08:07:45;;;;;;;;;;;21.30;67.20;;;;;;4977929;28;1651;-72
2022/07/18 08:10:11;;;;;;;;;;;21.30;67.30;;;;;;4995541;28;1384;-72
2022/07/18 08:12:36;;;;;;;;;;;21.30;67.90;;;;;;4975634;28;2041;-72
2022/07/18 08:15:02;;;;;;;;;;;21.30;68.10;;;;;;4974550;28;2041;-72
2022/07/18 08:17:27;;;;;;;;;;;21.30;68.10;;;;;;5003204;28;1906;-72
2022/07/18 08:19:53;;;;;;;;;;;21.30;68.00;;;;;;4964075;28;1334;-72
2022/07/18 08:22:18;;;;;;;;;;;21.40;68.10;;;;;;4994921;28;1615;-72
2022/07/18 08:24:44;;;;;;;;;;;21.40;68.10;;;;;;4995095;28;1159;-72
2022/07/18 08:27:09;;;;;;;;;;;21.40;68.20;;;;;;4995018;28;1475;-72
2022/07/18 08:29:35;;;;;;;;;;;21.40;68.10;;;;;;4977595;28;1642;-72
2022/07/18 08:32:00;;;;;;;;;;;21.40;68.20;;;;;;4977399;28;1110;-72
2022/07/18 08:34:26;;;;;;;;;;;21.40;68.10;;;;;;4994621;28;1175;-72
2022/07/18 08:36:51;;;;;;;;;;;21.40;68.20;;;;;;4995114;28;1709;-72
2022/07/18 08:39:16;;;;;;;;;;;21.40;68.30;;;;;;4994865;28;1898;-72
2022/07/18 08:41:42;;;;;;;;;;;21.40;68.20;;;;;;4994756;28;1439;-72
2022/07/18 08:44:08;;;;;;;;;;;21.40;68.30;;;;;;4976902;28;1308;-72
2022/07/18 08:46:33;;;;;;;;;;;21.40;68.40;;;;;;4994677;28;1492;-72
2022/07/18 08:48:59;;;;;;;;;;;21.40;68.60;;;;;;4961974;28;1383;-72
2022/07/18 08:51:24;;;;;;;;;;;21.40;68.50;;;;;;4978261;28;1262;-72
2022/07/18 08:53:51;;;;;;;;;;;21.40;68.80;;;;;;4977593;28;1727;-72
2022/07/18 08:56:17;;;;;;;;;;;21.40;68.80;;;;;;4995121;28;1565;-72
2022/07/18 08:58:42;;;;;;;;;;;21.40;68.80;;;;;;4977816;28;1899;-72
2022/07/18 09:01:08;;;;;;;;;;;21.40;68.90;;;;;;5010280;28;1402;-72
2022/07/18 09:03:33;;;;;;;;;;;21.40;69.10;;;;;;4973730;28;1986;-72
2022/07/18 09:06:05;;;;;;;;;;;21.40;69.30;;;;;;4977254;28;1718;-72
2022/07/18 09:08:31;;;;;;;;;;;21.40;69.40;;;;;;4994868;28;1384;-72
2022/07/18 09:10:57;;;;;;;;;;;21.50;69.40;;;;;;4994963;28;1723;-72
2022/07/18 09:13:23;;;;;;;;;;;21.50;69.30;;;;;;4994665;28;1837;-72
2022/07/18 09:15:58;;;;;;;;;;;21.50;69.40;;;;;;4993869;28;1705;-73
2022/07/18 09:18:27;;;;;;;;;;;21.50;69.40;;;;;;4993174;28;1894;-72
2022/07/18 09:21:03;;;;;;;;;;;21.50;69.40;;;;;;4997373;28;1527;-72
2022/07/18 09:23:29;;;;;;;;;;;21.50;69.40;;;;;;4976919;28;1458;-72
2022/07/18 09:25:55;;;;;;;;;;;21.50;69.50;;;;;;4963566;28;1544;-73
2022/07/18 09:28:20;;;;;;;;;;;21.50;69.50;;;;;;4976719;28;1752;-72
2022/07/18 09:30:46;;;;;;;;;;;21.50;69.50;;;;;;5009317;28;1405;-72
2022/07/18 09:33:11;;;;;;;;;;;21.50;70.30;;;;;;5009346;28;1601;-73
2022/07/18 09:35:43;;;;;;;;;;;21.50;69.50;;;;;;5008817;28;1605;-71
2022/07/18 09:38:09;;;;;;;;;;;21.50;69.50;;;;;;4991200;28;2057;-71
2022/07/18 09:40:40;;;;;;;;;;;21.50;69.60;;;;;;4992650;28;1652;-70
2022/07/18 09:43:12;;;;;;;;;;;21.50;69.40;;;;;;4993710;28;1346;-71
2022/07/18 09:45:39;;;;;;;;;;;21.50;69.40;;;;;;5008980;28;1578;-68
2022/07/18 09:48:05;;;;;;;;;;;21.50;69.40;;;;;;5009421;28;1188;-69
2022/07/18 09:50:35;;;;;;;;;;;21.50;69.40;;;;;;4994288;28;1806;-70
2022/07/18 09:53:02;;;;;;;;;;;21.50;69.40;;;;;;4976611;28;1606;-70
2022/07/18 09:55:27;;;;;;;;;;;21.50;69.40;;;;;;5008865;28;1705;-70
2022/07/18 09:58:01;;;;;;;;;;;21.50;69.50;;;;;;5008793;28;1894;-71
2022/07/18 10:00:27;;;;;;;;;;;21.50;69.50;;;;;;4994025;28;942;-72
2022/07/18 10:02:52;;;;;;;;;;;21.50;69.50;;;;;;4993627;28;1419;-71
2022/07/18 10:05:18;;;;;;;;;;;21.50;69.60;;;;;;4993801;28;1409;-71
2022/07/18 10:07:43;;;;;;;;;;;21.50;69.50;;;;;;4993592;28;1621;-71
2022/07/18 10:10:09;;;;;;;;;;;21.50;69.60;;;;;;4976203;28;1410;-70
2022/07/18 10:12:34;;;;;;;;;;;21.50;69.60;;;;;;4976243;28;1437;-74
2022/07/18 10:15:00;;;;;;;;;;;21.50;69.60;;;;;;4976177;28;1710;-74
2022/07/18 10:17:25;;;;;;;;;;;21.50;70.00;;;;;;4981636;28;1561;-74
2022/07/18 10:19:51;;;;;;;;;;;21.50;70.00;;;;;;4979631;28;1903;-73
2022/07/18 10:22:16;;;;;;;;;;;21.50;70.10;;;;;;4993784;28;1364;-74
2022/07/18 10:24:42;;;;;;;;;;;21.50;70.10;;;;;;4975750;28;1396;-73
2022/07/18 10:27:11;;;;;;;;;;;21.50;70.10;;;;;;4976091;28;1504;-73
2022/07/18 10:29:36;;;;;;;;;;;21.50;70.40;;;;;;4992048;28;2034;-75
2022/07/18 10:32:03;;;;;;;;;;;21.50;70.40;;;;;;4964731;28;2296;-75
2022/07/18 10:34:35;;;;;;;;;;;21.50;70.30;;;;;;5007992;28;1404;-74
2022/07/18 10:37:06;;;;;;;;;;;21.50;70.30;;;;;;4975956;28;1389;-69
2022/07/18 10:39:32;;;;;;;;;;;21.60;70.40;;;;;;4991018;28;2216;-67
2022/07/18 10:41:58;;;;;;;;;;;21.60;70.50;;;;;;4975552;28;1335;-70
2022/07/18 10:44:26;;;;;;;;;;;21.60;70.40;;;;;;4992724;28;1563;-70
2022/07/18 10:47:05;;;;;;;;;;;21.60;70.40;;;;;;4975611;28;1647;-69
2022/07/18 10:49:52;;;;;;;;;;;21.60;70.40;;;;;;4959328;28;1599;-71
2022/07/18 10:52:23;;;;;;;;;;;21.60;70.40;;;;;;4976645;28;1652;-70
2022/07/18 10:57:32;;;;;;;;;;;21.60;70.60;;;;;;4992943;28;1899;-69
2022/07/18 11:00:05;;;;;;;;;;;21.60;70.50;;;;;;4992860;28;1506;-69
2022/07/18 11:02:31;;;;;;;;;;;21.60;70.50;;;;;;4993366;28;1654;-68
2022/07/18 11:04:57;;;;;;;;;;;21.60;70.50;;;;;;4992755;28;1704;-68
2022/07/18 11:07:22;;;;;;;;;;;21.60;70.50;;;;;;4975606;28;1585;-69
2022/07/18 11:09:48;;;;;;;;;;;21.60;70.50;;;;;;4993091;28;1670;-69
2022/07/18 11:12:21;;;;;;;;;;;21.60;70.50;;;;;;4975954;28;1513;-68
2022/07/18 11:15:05;;;;;;;;;;;21.60;70.60;;;;;;4975189;28;1639;-68
2022/07/18 11:17:49;;;;;;;;;;;21.60;70.60;;;;;;4988424;28;1962;-70
2022/07/18 11:20:38;;;;;;;;;;;21.50;70.60;;;;;;4996124;28;1481;-71
2022/07/18 11:23:04;;;;;;;;;;;21.60;70.90;;;;;;4987360;28;1101;-70
2022/07/18 11:25:30;;;;;;;;;;;21.60;71.00;;;;;;4991808;28;1207;-70
2022/07/18 11:27:55;;;;;;;;;;;21.60;71.00;;;;;;5007948;28;838;-69
2022/07/18 11:30:21;;;;;;;;;;;21.60;71.00;;;;;;5007704;28;883;-69
2022/07/18 11:32:47;;;;;;;;;;;21.60;70.90;;;;;;5008377;28;895;-69
2022/07/18 11:35:12;;;;;;;;;;;21.60;70.90;;;;;;4992783;28;1149;-69
2022/07/18 11:37:38;;;;;;;;;;;21.60;70.80;;;;;;5008039;28;1971;-69
2022/07/18 11:40:06;;;;;;;;;;;21.60;70.80;;;;;;4993203;28;887;-69
2022/07/18 11:42:36;;;;;;;;;;;21.60;70.80;;;;;;5011689;28;875;-69
2022/07/18 11:45:02;;;;;;;;;;;21.60;70.80;;;;;;5011227;28;1296;-72
2022/07/18 11:47:27;;;;;;;;;;;21.60;70.80;;;;;;4996516;28;864;-72
2022/07/18 11:49:53;;;;;;;;;;;21.60;70.80;;;;;;4996420;28;911;-70
2022/07/18 11:52:19;;;;;;;;;;;21.60;70.80;;;;;;4996360;28;950;-70
2022/07/18 11:54:44;;;;;;;;;;;21.60;70.90;;;;;;4996138;28;896;-72
2022/07/18 11:57:09;;;;;;;;;;;21.60;70.90;;;;;;4996431;28;1216;-71
2022/07/18 11:59:36;;;;;;;;;;;21.60;70.90;;;;;;4996138;28;1895;-71
2022/07/18 12:02:01;;;;;;;;;;;21.60;70.90;;;;;;4994186;28;2189;-71
2022/07/18 12:04:27;;;;;;;;;;;21.60;71.50;;;;;;4995873;28;1514;-70
2022/07/18 12:07:11;;;;;;;;;;;21.70;71.10;;;;;;4995762;28;1599;-71
2022/07/18 12:09:36;;;;;;;;;;;21.70;70.30;;;;;;4995976;28;1022;-71
2022/07/18 12:12:09;;;;;;;;;;;21.60;69.60;;;;;;4995933;28;1176;-71
2022/07/18 12:14:34;;;;;;;;;;;21.60;69.50;;;;;;4978437;28;1107;-71
2022/07/18 12:17:00;;;;;;;;;;;21.60;69.00;;;;;;4995442;28;1277;-71
2022/07/18 12:19:32;;;;;;;;;;;21.60;68.30;;;;;;4994844;28;1898;-71
2022/07/18 12:22:08;;;;;;;;;;;21.60;67.70;;;;;;5000461;28;1169;-70
2022/07/18 12:24:33;;;;;;;;;;;21.60;67.00;;;;;;5002452;28;1220;-70
2022/07/18 12:27:18;;;;;;;;;;;21.60;66.60;;;;;;4989837;28;1878;-70
2022/07/18 12:30:04;;;;;;;;;;;21.60;66.10;;;;;;4977974;28;1296;-70
2022/07/18 12:32:43;;;;;;;;;;;21.60;65.20;;;;;;4991817;28;2018;-70
2022/07/18 12:35:09;;;;;;;;;;;21.60;64.30;;;;;;5007239;28;1382;-70
2022/07/18 12:37:35;;;;;;;;;;;21.60;64.80;;;;;;4977074;28;1969;-70
2022/07/18 12:40:04;;;;;;;;;;;21.60;65.10;;;;;;4977396;28;1217;-70
2022/07/18 12:42:35;;;;;;;;;;;21.60;64.20;;;;;;4977343;28;792;-70
2022/07/18 12:45:00;;;;;;;;;;;21.60;63.40;;;;;;4994918;28;1298;-69
2022/07/18 12:47:26;;;;;;;;;;;21.60;65.00;;;;;;4977892;28;1066;-70
2022/07/18 12:49:51;;;;;;;;;;;21.60;65.00;;;;;;4995376;28;769;-70
2022/07/18 12:52:17;;;;;;;;;;;21.60;64.70;;;;;;4994906;28;953;-70
2022/07/18 12:54:42;;;;;;;;;;;21.60;64.90;;;;;;4977100;28;867;-70
2022/07/18 12:57:08;;;;;;;;;;;21.60;64.70;;;;;;4994841;28;1300;-70
2022/07/18 12:59:33;;;;;;;;;;;21.60;64.60;;;;;;4993497;28;1960;-70
2022/07/18 13:01:59;;;;;;;;;;;21.60;64.80;;;;;;4994923;28;1024;-69
2022/07/18 13:04:24;;;;;;;;;;;21.60;64.70;;;;;;4994478;28;1050;-70
2022/07/18 13:06:50;;;;;;;;;;;21.60;64.20;;;;;;4995095;28;1267;-71
2022/07/18 13:09:15;;;;;;;;;;;21.60;64.40;;;;;;4994638;28;792;-69
2022/07/18 13:11:43;;;;;;;;;;;21.60;64.70;;;;;;4995030;28;1156;-70
2022/07/18 13:14:08;;;;;;;;;;;21.60;64.80;;;;;;4994471;28;858;-71
2022/07/18 13:16:33;;;;;;;;;;;21.60;64.20;;;;;;5006935;28;1181;-70
2022/07/18 13:18:59;;;;;;;;;;;21.60;64.50;;;;;;4992868;28;1902;-71
2022/07/18 13:21:24;;;;;;;;;;;21.60;64.60;;;;;;4994534;28;1049;-71
2022/07/18 13:23:50;;;;;;;;;;;21.60;64.70;;;;;;4993931;28;690;-71
2022/07/18 13:26:15;;;;;;;;;;;21.50;64.40;;;;;;4994767;28;1185;-70
2022/07/18 13:28:41;;;;;;;;;;;21.60;64.50;;;;;;4994464;28;855;-69
2022/07/18 13:31:08;;;;;;;;;;;21.50;64.20;;;;;;4994499;28;883;-70
2022/07/18 13:33:35;;;;;;;;;;;21.50;64.40;;;;;;4976793;28;934;-70
2022/07/18 13:36:00;;;;;;;;;;;21.50;65.00;;;;;;4994610;28;1283;-70
2022/07/18 13:38:26;;;;;;;;;;;21.50;65.20;;;;;;4976288;28;1907;-70
2022/07/18 13:40:52;;;;;;;;;;;21.50;65.10;;;;;;4994282;28;874;-70
2022/07/18 13:43:17;;;;;;;;;;;21.50;64.90;;;;;;4994212;28;875;-70
2022/07/18 13:45:43;;;;;;;;;;;21.50;65.00;;;;;;4994137;28;1221;-70
2022/07/18 13:48:08;;;;;;;;;;;21.50;64.90;;;;;;4994041;28;954;-70
2022/07/18 13:50:34;;;;;;;;;;;21.50;64.90;;;;;;4993944;28;883;-70
2022/07/18 13:52:59;;;;;;;;;;;21.50;64.80;;;;;;4993830;28;836;-70
2022/07/18 13:55:25;;;;;;;;;;;21.50;64.80;;;;;;4993664;28;1198;-71
2022/07/18 13:57:51;;;;;;;;;;;21.50;64.90;;;;;;4994067;28;1948;-70
2022/07/18 14:00:18;;;;;;;;;;;21.50;65.00;;;;;;4993937;28;848;-70
2022/07/18 14:02:43;;;;;;;;;;;21.50;65.10;;;;;;4992522;28;808;-71
2022/07/18 14:05:09;;;;;;;;;;;21.50;65.10;;;;;;4993446;28;1208;-70
2022/07/18 14:07:34;;;;;;;;;;;21.50;65.10;;;;;;4976333;28;967;-70
2022/07/18 14:09:59;;;;;;;;;;;21.50;65.20;;;;;;4993701;28;1057;-70
2022/07/18 14:12:25;;;;;;;;;;;21.50;65.20;;;;;;4993718;28;1275;-70
2022/07/18 14:14:50;;;;;;;;;;;21.50;65.00;;;;;;4993585;28;1208;-70
2022/07/18 14:17:16;;;;;;;;;;;21.50;64.80;;;;;;4993675;28;1156;-70
2022/07/18 14:19:41;;;;;;;;;;;21.50;64.80;;;;;;4969216;28;1964;-70
2022/07/18 14:22:09;;;;;;;;;;;21.50;64.70;;;;;;5013201;28;895;-70
2022/07/18 14:24:35;;;;;;;;;;;21.50;64.70;;;;;;5013065;28;816;-70
2022/07/18 14:27:00;;;;;;;;;;;21.50;64.30;;;;;;5013470;28;1249;-70
2022/07/18 14:29:26;;;;;;;;;;;21.50;64.40;;;;;;5013167;28;1066;-70
2022/07/18 14:31:51;;;;;;;;;;;21.50;64.50;;;;;;5013185;28;936;-70